sensor_id;sensor_type;location;lat;lon;timestamp;P1;durP1;ratioP1;P2;durP2;ratioP2
6953;SDS011;3516;47.980;8.808;2023-06-19T04:02:02;2.22;;;2.22;;
6953;SDS011;3516;47.980;8.808;2023-06-19T04:04:29;2.08;;;2.05;;
6953;SDS011;3516;47.980;8.808;2023-06-19T04:06:56;1.90;;;1.90;;
6953;SDS011;3516;47.980;8.808;2023-06-19T04:09:24;1.90;;;1.80;;
6953;SDS011;3516;47.980;8.808;2023-06-19T04:11:50;1.70;;;1.70;;
6953;SDS011;3516;47.980;8.808;2023-06-19T04:14:17;2.35;;;1.90;;
6953;SDS011;3516;47.980;8.808;2023-06-19T04:16:44;1.95;;;1.85;;
6953;SDS011;3516;47.980;8.808;2023-06-19T04:19:12;2.15;;;2.05;;
6953;SDS011;3516;47.980;8.808;2023-06-19T04:21:39;2.08;;;2.03;;
6953;SDS011;3516;47.980;8.808;2023-06-19T04:24:06;1.70;;;1.70;;
6953;SDS011;3516;47.980;8.808;2023-06-19T04:26:34;1.80;;;1.80;;
6953;SDS011;3516;47.980;8.808;2023-06-19T04:29:01;2.03;;;1.92;;
6953;SDS011;3516;47.980;8.808;2023-06-19T04:31:28;1.90;;;1.80;;
6953;SDS011;3516;47.980;8.808;2023-06-19T04:33:55;2.20;;;2.10;;
6953;SDS011;3516;47.980;8.808;2023-06-19T04:36:23;2.20;;;2.10;;
6953;SDS011;3516;47.980;8.808;2023-06-19T04:38:50;1.90;;;1.90;;
6953;SDS011;3516;47.980;8.808;2023-06-19T04:41:17;1.63;;;1.63;;
6953;SDS011;3516;47.980;8.808;2023-06-19T04:43:44;2.03;;;1.90;;
6953;SDS011;3516;47.980;8.808;2023-06-19T04:46:10;1.75;;;1.65;;
6953;SDS011;3516;47.980;8.808;2023-06-19T04:48:37;1.70;;;1.70;;
6953;SDS011;3516;47.980;8.808;2023-06-19T04:51:04;2.25;;;2.20;;
6953;SDS011;3516;47.980;8.808;2023-06-19T04:53:32;1.83;;;1.83;;
6953;SDS011;3516;47.980;8.808;2023-06-19T04:55:59;2.15;;;2.15;;
6953;SDS011;3516;47.980;8.808;2023-06-19T04:58:26;2.47;;;2.30;;
6953;SDS011;3516;47.980;8.808;2023-06-19T05:00:53;3.38;;;3.17;;
6953;SDS011;3516;47.980;8.808;2023-06-19T05:03:20;3.22;;;3.03;;
6953;SDS011;3516;47.980;8.808;2023-06-19T05:05:47;3.00;;;2.80;;
6953;SDS011;3516;47.980;8.808;2023-06-19T05:08:13;3.38;;;3.20;;
6953;SDS011;3516;47.980;8.808;2023-06-19T05:10:41;2.35;;;2.25;;
6953;SDS011;3516;47.980;8.808;2023-06-19T09:59:52;4.35;;;4.05;;
6953;SDS011;3516;47.980;8.808;2023-06-19T10:02:21;4.78;;;4.40;;
6953;SDS011;3516;47.980;8.808;2023-06-19T10:04:50;4.15;;;3.95;;
6953;SDS011;3516;47.980;8.808;2023-06-19T10:07:18;3.88;;;3.67;;
6953;SDS011;3516;47.980;8.808;2023-06-19T10:09:58;4.30;;;4.03;;
6953;SDS011;3516;47.980;8.808;2023-06-19T10:12:36;4.47;;;4.05;;
6953;SDS011;3516;47.980;8.808;2023-06-19T10:15:12;3.90;;;3.60;;
6953;SDS011;3516;47.980;8.808;2023-06-19T10:17:45;3.95;;;3.67;;
6953;SDS011;3516;47.980;8.808;2023-06-19T10:20:20;6.13;;;4.07;;
6953;SDS011;3516;47.980;8.808;2023-06-19T10:22:52;3.53;;;3.40;;
6953;SDS011;3516;47.980;8.808;2023-06-19T10:25:22;4.00;;;3.70;;
6953;SDS011;3516;47.980;8.808;2023-06-19T10:27:50;3.60;;;3.40;;
6953;SDS011;3516;47.980;8.808;2023-06-19T10:30:19;4.60;;;4.30;;
6953;SDS011;3516;47.980;8.808;2023-06-19T10:32:46;4.30;;;4.10;;
6953;SDS011;3516;47.980;8.808;2023-06-19T10:35:14;3.78;;;3.58;;
6953;SDS011;3516;47.980;8.808;2023-06-19T10:37:46;3.80;;;3.60;;
6953;SDS011;3516;47.980;8.808;2023-06-19T10:40:14;4.53;;;4.13;;
6953;SDS011;3516;47.980;8.808;2023-06-19T10:42:40;3.78;;;3.58;;
6953;SDS011;3516;47.980;8.808;2023-06-19T10:45:08;3.90;;;3.70;;
6953;SDS011;3516;47.980;8.808;2023-06-19T10:47:39;4.00;;;3.67;;
6953;SDS011;3516;47.980;8.808;2023-06-19T10:50:09;4.38;;;4.13;;
6953;SDS011;3516;47.980;8.808;2023-06-19T10:52:38;4.30;;;4.00;;
6953;SDS011;3516;47.980;8.808;2023-06-19T10:55:06;3.75;;;3.55;;
6953;SDS011;3516;47.980;8.808;2023-06-19T10:57:33;4.30;;;3.90;;
6953;SDS011;3516;47.980;8.808;2023-06-19T11:00:00;4.90;;;4.50;;
6953;SDS011;3516;47.980;8.808;2023-06-19T11:02:31;4.63;;;4.32;;
6953;SDS011;3516;47.980;8.808;2023-06-19T11:05:00;4.13;;;3.92;;
6953;SDS011;3516;47.980;8.808;2023-06-19T11:07:29;4.07;;;3.88;;
6953;SDS011;3516;47.980;8.808;2023-06-19T11:09:58;3.60;;;3.40;;
6953;SDS011;3516;47.980;8.808;2023-06-19T11:12:25;3.88;;;3.67;;
6953;SDS011;3516;47.980;8.808;2023-06-19T11:14:51;3.63;;;3.33;;
6953;SDS011;3516;47.980;8.808;2023-06-19T11:17:18;4.05;;;3.85;;
6953;SDS011;3516;47.980;8.808;2023-06-19T11:19:46;4.32;;;3.92;;
6953;SDS011;3516;47.980;8.808;2023-06-19T11:22:14;3.45;;;3.25;;
6953;SDS011;3516;47.980;8.808;2023-06-19T11:24:44;3.72;;;3.53;;
6953;SDS011;3516;47.980;8.808;2023-06-19T11:27:18;3.78;;;3.58;;
6953;SDS011;3516;47.980;8.808;2023-06-19T11:29:54;3.58;;;3.40;;
6953;SDS011;3516;47.980;8.808;2023-06-19T11:32:23;4.03;;;3.80;;
6953;SDS011;3516;47.980;8.808;2023-06-19T11:34:56;3.53;;;3.42;;
6953;SDS011;3516;47.980;8.808;2023-06-19T11:37:24;3.50;;;3.38;;
6953;SDS011;3516;47.980;8.808;2023-06-19T11:39:55;3.83;;;3.58;;
6953;SDS011;3516;47.980;8.808;2023-06-19T11:42:23;3.35;;;3.25;;
6953;SDS011;3516;47.980;8.808;2023-06-19T11:44:53;4.45;;;4.13;;
6953;SDS011;3516;47.980;8.808;2023-06-19T11:47:20;3.53;;;3.42;;
6953;SDS011;3516;47.980;8.808;2023-06-19T11:49:47;3.38;;;3.28;;
6953;SDS011;3516;47.980;8.808;2023-06-19T11:52:15;4.03;;;3.80;;
6953;SDS011;3516;47.980;8.808;2023-06-19T11:54:43;3.85;;;3.63;;
6953;SDS011;3516;47.980;8.808;2023-06-19T11:57:09;4.55;;;3.78;;
6953;SDS011;3516;47.980;8.808;2023-06-19T11:59:37;4.38;;;3.97;;
6953;SDS011;3516;47.980;8.808;2023-06-19T12:02:05;3.75;;;3.55;;
6953;SDS011;3516;47.980;8.808;2023-06-19T12:04:32;3.28;;;3.17;;
6953;SDS011;3516;47.980;8.808;2023-06-19T12:06:58;4.28;;;3.60;;
6953;SDS011;3516;47.980;8.808;2023-06-19T12:09:26;3.53;;;3.42;;
6953;SDS011;3516;47.980;8.808;2023-06-19T12:11:54;3.65;;;3.45;;
6953;SDS011;3516;47.980;8.808;2023-06-19T12:14:21;3.90;;;3.70;;
6953;SDS011;3516;47.980;8.808;2023-06-19T12:16:49;3.20;;;3.10;;
6953;SDS011;3516;47.980;8.808;2023-06-19T12:19:16;3.45;;;3.25;;
6953;SDS011;3516;47.980;8.808;2023-06-19T12:21:43;3.88;;;3.58;;
6953;SDS011;3516;47.980;8.808;2023-06-19T12:24:10;3.42;;;3.20;;
6953;SDS011;3516;47.980;8.808;2023-06-19T12:26:37;3.67;;;3.38;;
6953;SDS011;3516;47.980;8.808;2023-06-19T12:29:06;3.63;;;3.42;;
6953;SDS011;3516;47.980;8.808;2023-06-19T12:31:33;3.58;;;3.38;;
6953;SDS011;3516;47.980;8.808;2023-06-19T12:34:00;4.45;;;3.83;;
6953;SDS011;3516;47.980;8.808;2023-06-19T12:36:27;3.88;;;3.65;;
6953;SDS011;3516;47.980;8.808;2023-06-19T12:38:56;3.53;;;3.33;;
6953;SDS011;3516;47.980;8.808;2023-06-19T12:41:22;3.85;;;3.60;;
6953;SDS011;3516;47.980;8.808;2023-06-19T12:43:49;3.38;;;3.17;;
6953;SDS011;3516;47.980;8.808;2023-06-19T12:46:17;3.60;;;3.22;;
6953;SDS011;3516;47.980;8.808;2023-06-19T12:48:44;3.47;;;3.30;;
6953;SDS011;3516;47.980;8.808;2023-06-19T12:51:15;3.60;;;3.40;;
6953;SDS011;3516;47.980;8.808;2023-06-19T12:53:42;3.35;;;3.25;;
6953;SDS011;3516;47.980;8.808;2023-06-19T12:56:09;3.63;;;3.47;;
6953;SDS011;3516;47.980;8.808;2023-06-19T12:58:36;3.47;;;3.30;;
6953;SDS011;3516;47.980;8.808;2023-06-19T13:01:02;3.67;;;3.50;;
6953;SDS011;3516;47.980;8.808;2023-06-19T13:03:30;3.90;;;3.70;;
6953;SDS011;3516;47.980;8.808;2023-06-19T13:05:57;3.72;;;3.53;;
6953;SDS011;3516;47.980;8.808;2023-06-19T13:08:24;3.47;;;3.28;;
6953;SDS011;3516;47.980;8.808;2023-06-19T13:10:50;2.97;;;2.88;;
6953;SDS011;3516;47.980;8.808;2023-06-19T13:13:18;4.38;;;3.40;;
6953;SDS011;3516;47.980;8.808;2023-06-19T13:15:44;3.83;;;3.63;;
6953;SDS011;3516;47.980;8.808;2023-06-19T13:18:11;4.28;;;3.97;;
6953;SDS011;3516;47.980;8.808;2023-06-19T13:20:40;3.53;;;3.42;;
6953;SDS011;3516;47.980;8.808;2023-06-19T13:23:09;3.40;;;3.10;;
6953;SDS011;3516;47.980;8.808;2023-06-19T13:25:36;3.53;;;3.33;;
6953;SDS011;3516;47.980;8.808;2023-06-19T13:28:04;3.97;;;3.78;;
6953;SDS011;3516;47.980;8.808;2023-06-19T13:30:31;3.50;;;3.20;;
6953;SDS011;3516;47.980;8.808;2023-06-19T13:32:58;3.78;;;3.55;;
6953;SDS011;3516;47.980;8.808;2023-06-19T13:35:25;3.97;;;3.78;;
6953;SDS011;3516;47.980;8.808;2023-06-19T13:37:54;4.20;;;3.90;;
6953;SDS011;3516;47.980;8.808;2023-06-19T13:40:21;3.40;;;3.30;;
6953;SDS011;3516;47.980;8.808;2023-06-19T13:42:48;3.65;;;3.45;;
6953;SDS011;3516;47.980;8.808;2023-06-19T13:45:15;3.05;;;3.00;;
6953;SDS011;3516;47.980;8.808;2023-06-19T13:47:42;3.88;;;3.60;;
6953;SDS011;3516;47.980;8.808;2023-06-19T13:50:10;3.70;;;3.50;;
6953;SDS011;3516;47.980;8.808;2023-06-19T13:52:42;3.42;;;3.33;;
6953;SDS011;3516;47.980;8.808;2023-06-19T13:55:11;3.78;;;3.47;;
6953;SDS011;3516;47.980;8.808;2023-06-19T13:57:38;3.35;;;3.17;;
6953;SDS011;3516;47.980;8.808;2023-06-19T14:00:06;4.32;;;3.72;;
6953;SDS011;3516;47.980;8.808;2023-06-19T14:02:35;3.67;;;3.38;;
6953;SDS011;3516;47.980;8.808;2023-06-19T14:05:02;3.80;;;3.50;;
6953;SDS011;3516;47.980;8.808;2023-06-19T14:07:29;3.67;;;3.47;;
6953;SDS011;3516;47.980;8.808;2023-06-19T14:09:55;3.30;;;3.13;;
6953;SDS011;3516;47.980;8.808;2023-06-19T14:12:23;3.20;;;3.00;;
6953;SDS011;3516;47.980;8.808;2023-06-19T14:14:51;3.72;;;3.45;;
6953;SDS011;3516;47.980;8.808;2023-06-19T14:17:17;4.53;;;3.50;;
6953;SDS011;3516;47.980;8.808;2023-06-19T14:19:44;3.47;;;3.30;;
6953;SDS011;3516;47.980;8.808;2023-06-19T14:22:11;3.50;;;3.40;;
6953;SDS011;3516;47.980;8.808;2023-06-19T14:24:38;3.72;;;3.55;;
6953;SDS011;3516;47.980;8.808;2023-06-19T14:27:05;4.05;;;3.70;;
6953;SDS011;3516;47.980;8.808;2023-06-19T14:29:33;3.15;;;2.90;;
6953;SDS011;3516;47.980;8.808;2023-06-19T14:32:00;3.95;;;3.70;;
6953;SDS011;3516;47.980;8.808;2023-06-19T14:34:27;3.40;;;3.30;;
6953;SDS011;3516;47.980;8.808;2023-06-19T14:36:57;3.80;;;3.60;;
6953;SDS011;3516;47.980;8.808;2023-06-19T14:39:24;4.05;;;3.70;;
6953;SDS011;3516;47.980;8.808;2023-06-19T14:41:51;3.75;;;3.55;;
6953;SDS011;3516;47.980;8.808;2023-06-19T14:44:19;4.00;;;3.80;;
6953;SDS011;3516;47.980;8.808;2023-06-19T14:46:47;4.45;;;4.15;;
6953;SDS011;3516;47.980;8.808;2023-06-19T14:49:14;5.15;;;4.10;;
6953;SDS011;3516;47.980;8.808;2023-06-19T14:51:42;3.75;;;3.50;;
6953;SDS011;3516;47.980;8.808;2023-06-19T14:54:09;3.97;;;3.78;;
6953;SDS011;3516;47.980;8.808;2023-06-19T14:56:36;3.60;;;3.40;;
6953;SDS011;3516;47.980;8.808;2023-06-19T14:59:02;4.20;;;3.90;;
6953;SDS011;3516;47.980;8.808;2023-06-19T15:01:29;5.63;;;4.38;;
6953;SDS011;3516;47.980;8.808;2023-06-19T15:03:57;4.25;;;3.95;;
6953;SDS011;3516;47.980;8.808;2023-06-19T15:06:24;4.30;;;4.00;;
6953;SDS011;3516;47.980;8.808;2023-06-19T15:08:51;4.00;;;3.80;;
6953;SDS011;3516;47.980;8.808;2023-06-19T15:11:18;3.83;;;3.65;;
6953;SDS011;3516;47.980;8.808;2023-06-19T15:13:45;3.65;;;3.45;;
6953;SDS011;3516;47.980;8.808;2023-06-19T15:16:12;3.63;;;3.45;;
6953;SDS011;3516;47.980;8.808;2023-06-19T15:18:39;4.07;;;3.88;;
6953;SDS011;3516;47.980;8.808;2023-06-19T15:21:07;3.50;;;3.40;;
6953;SDS011;3516;47.980;8.808;2023-06-19T15:23:34;3.60;;;3.40;;
6953;SDS011;3516;47.980;8.808;2023-06-19T15:26:01;3.85;;;3.65;;
6953;SDS011;3516;47.980;8.808;2023-06-19T15:28:31;4.03;;;3.83;;
6953;SDS011;3516;47.980;8.808;2023-06-19T15:30:59;3.72;;;3.58;;
6953;SDS011;3516;47.980;8.808;2023-06-19T15:33:26;3.60;;;3.40;;
6953;SDS011;3516;47.980;8.808;2023-06-19T15:35:53;3.55;;;3.45;;
6953;SDS011;3516;47.980;8.808;2023-06-19T15:38:21;3.63;;;3.53;;
6953;SDS011;3516;47.980;8.808;2023-06-19T15:40:47;3.90;;;3.70;;
6953;SDS011;3516;47.980;8.808;2023-06-19T15:43:14;3.70;;;3.60;;
6953;SDS011;3516;47.980;8.808;2023-06-19T15:45:41;3.00;;;2.90;;
6953;SDS011;3516;47.980;8.808;2023-06-19T15:48:07;3.40;;;3.13;;
6953;SDS011;3516;47.980;8.808;2023-06-19T15:50:34;3.70;;;3.40;;
6953;SDS011;3516;47.980;8.808;2023-06-19T15:53:01;3.40;;;3.13;;
6953;SDS011;3516;47.980;8.808;2023-06-19T15:55:29;3.63;;;3.42;;
6953;SDS011;3516;47.980;8.808;2023-06-19T15:57:56;2.47;;;2.38;;
6953;SDS011;3516;47.980;8.808;2023-06-19T16:00:23;3.20;;;3.00;;
6953;SDS011;3516;47.980;8.808;2023-06-19T16:02:50;2.97;;;2.88;;
6953;SDS011;3516;47.980;8.808;2023-06-19T16:05:17;2.90;;;2.80;;
6953;SDS011;3516;47.980;8.808;2023-06-19T16:07:43;3.05;;;2.85;;
6953;SDS011;3516;47.980;8.808;2023-06-19T16:10:10;3.20;;;3.00;;
6953;SDS011;3516;47.980;8.808;2023-06-19T16:12:38;2.85;;;2.75;;
6953;SDS011;3516;47.980;8.808;2023-06-19T16:15:06;2.72;;;2.60;;
6953;SDS011;3516;47.980;8.808;2023-06-19T16:17:37;3.50;;;3.28;;
6953;SDS011;3516;47.980;8.808;2023-06-19T16:20:05;3.05;;;2.95;;
6953;SDS011;3516;47.980;8.808;2023-06-19T16:22:32;3.10;;;3.00;;
6953;SDS011;3516;47.980;8.808;2023-06-19T16:24:59;3.15;;;2.95;;
6953;SDS011;3516;47.980;8.808;2023-06-19T16:27:26;3.80;;;2.90;;
6953;SDS011;3516;47.980;8.808;2023-06-19T16:29:54;3.15;;;3.00;;
6953;SDS011;3516;47.980;8.808;2023-06-19T16:32:20;3.13;;;3.03;;
6953;SDS011;3516;47.980;8.808;2023-06-19T16:34:47;2.58;;;2.47;;
6953;SDS011;3516;47.980;8.808;2023-06-19T16:37:14;3.00;;;2.88;;
6953;SDS011;3516;47.980;8.808;2023-06-19T16:39:40;3.10;;;3.00;;
6953;SDS011;3516;47.980;8.808;2023-06-19T16:42:07;2.80;;;2.70;;
6953;SDS011;3516;47.980;8.808;2023-06-19T16:44:35;3.28;;;3.03;;
6953;SDS011;3516;47.980;8.808;2023-06-19T16:47:04;3.67;;;3.03;;
6953;SDS011;3516;47.980;8.808;2023-06-19T16:49:31;3.45;;;3.25;;
6953;SDS011;3516;47.980;8.808;2023-06-19T16:51:57;3.30;;;3.10;;
6953;SDS011;3516;47.980;8.808;2023-06-19T16:54:24;3.42;;;3.22;;
6953;SDS011;3516;47.980;8.808;2023-06-19T16:56:51;3.58;;;3.38;;
6953;SDS011;3516;47.980;8.808;2023-06-19T16:59:17;2.90;;;2.80;;
6953;SDS011;3516;47.980;8.808;2023-06-19T17:01:44;3.67;;;3.40;;
6953;SDS011;3516;47.980;8.808;2023-06-19T17:04:12;3.22;;;3.10;;
6953;SDS011;3516;47.980;8.808;2023-06-19T17:06:39;3.33;;;3.13;;
6953;SDS011;3516;47.980;8.808;2023-06-19T17:09:06;3.70;;;3.50;;
6953;SDS011;3516;47.980;8.808;2023-06-19T17:11:32;3.58;;;3.38;;
6953;SDS011;3516;47.980;8.808;2023-06-19T17:13:59;3.70;;;3.50;;
6953;SDS011;3516;47.980;8.808;2023-06-19T17:16:26;3.65;;;3.45;;
6953;SDS011;3516;47.980;8.808;2023-06-19T17:18:52;3.45;;;3.25;;
6953;SDS011;3516;47.980;8.808;2023-06-19T17:21:21;3.17;;;3.00;;
6953;SDS011;3516;47.980;8.808;2023-06-19T17:23:47;3.50;;;3.30;;
6953;SDS011;3516;47.980;8.808;2023-06-19T17:26:14;3.50;;;3.30;;
6953;SDS011;3516;47.980;8.808;2023-06-19T17:28:41;3.42;;;3.22;;
6953;SDS011;3516;47.980;8.808;2023-06-19T17:31:07;3.20;;;3.05;;
6953;SDS011;3516;47.980;8.808;2023-06-19T17:33:34;3.80;;;3.50;;
6953;SDS011;3516;47.980;8.808;2023-06-19T17:36:01;3.88;;;3.67;;
6953;SDS011;3516;47.980;8.808;2023-06-19T17:38:29;4.43;;;4.13;;
6953;SDS011;3516;47.980;8.808;2023-06-19T17:40:56;4.03;;;3.70;;
6953;SDS011;3516;47.980;8.808;2023-06-19T17:43:22;4.28;;;3.90;;
6953;SDS011;3516;47.980;8.808;2023-06-19T17:45:49;4.60;;;4.40;;
6953;SDS011;3516;47.980;8.808;2023-06-19T17:48:16;5.13;;;4.32;;
6953;SDS011;3516;47.980;8.808;2023-06-19T17:50:42;4.78;;;4.47;;
6953;SDS011;3516;47.980;8.808;2023-06-19T17:53:09;4.57;;;4.30;;
6953;SDS011;3516;47.980;8.808;2023-06-19T17:55:37;4.50;;;4.30;;
6953;SDS011;3516;47.980;8.808;2023-06-19T17:58:05;4.78;;;4.45;;
6953;SDS011;3516;47.980;8.808;2023-06-19T18:00:32;4.40;;;4.00;;
6953;SDS011;3516;47.980;8.808;2023-06-19T18:02:59;5.13;;;4.72;;
6953;SDS011;3516;47.980;8.808;2023-06-19T18:05:27;5.00;;;4.70;;
6953;SDS011;3516;47.980;8.808;2023-06-19T18:07:54;4.43;;;4.13;;
6953;SDS011;3516;47.980;8.808;2023-06-19T18:10:21;4.82;;;4.43;;
6953;SDS011;3516;47.980;8.808;2023-06-19T18:12:49;5.07;;;4.78;;
6953;SDS011;3516;47.980;8.808;2023-06-19T18:15:16;4.32;;;4.03;;
6953;SDS011;3516;47.980;8.808;2023-06-19T18:17:43;4.68;;;4.38;;
6953;SDS011;3516;47.980;8.808;2023-06-19T18:20:10;4.85;;;4.55;;
6953;SDS011;3516;47.980;8.808;2023-06-19T18:22:37;4.70;;;4.40;;
6953;SDS011;3516;47.980;8.808;2023-06-19T18:25:04;4.25;;;4.05;;
6953;SDS011;3516;47.980;8.808;2023-06-19T18:27:31;4.60;;;4.30;;
6953;SDS011;3516;47.980;8.808;2023-06-19T18:29:59;4.00;;;3.80;;
6953;SDS011;3516;47.980;8.808;2023-06-19T18:32:26;4.07;;;3.88;;
6953;SDS011;3516;47.980;8.808;2023-06-19T18:34:53;4.65;;;4.35;;
6953;SDS011;3516;47.980;8.808;2023-06-19T18:37:20;5.00;;;4.70;;
6953;SDS011;3516;47.980;8.808;2023-06-19T18:39:46;4.82;;;4.53;;
6953;SDS011;3516;47.980;8.808;2023-06-19T18:42:13;4.25;;;3.95;;
6953;SDS011;3516;47.980;8.808;2023-06-19T18:44:40;3.88;;;3.67;;
6953;SDS011;3516;47.980;8.808;2023-06-19T18:47:08;3.47;;;3.38;;
6953;SDS011;3516;47.980;8.808;2023-06-19T18:49:34;4.20;;;3.92;;
6953;SDS011;3516;47.980;8.808;2023-06-19T18:52:01;4.15;;;3.95;;
6953;SDS011;3516;47.980;8.808;2023-06-19T18:54:28;3.60;;;3.50;;
6953;SDS011;3516;47.980;8.808;2023-06-19T18:56:55;4.00;;;3.80;;
6953;SDS011;3516;47.980;8.808;2023-06-19T18:59:21;3.45;;;3.35;;
6953;SDS011;3516;47.980;8.808;2023-06-19T19:01:48;3.90;;;3.70;;
6953;SDS011;3516;47.980;8.808;2023-06-19T19:04:16;3.90;;;3.70;;
6953;SDS011;3516;47.980;8.808;2023-06-19T19:06:43;3.95;;;3.70;;
6953;SDS011;3516;47.980;8.808;2023-06-19T19:09:09;3.97;;;3.78;;
6953;SDS011;3516;47.980;8.808;2023-06-19T19:11:36;4.22;;;3.97;;
6953;SDS011;3516;47.980;8.808;2023-06-19T19:14:03;5.65;;;4.30;;
6953;SDS011;3516;47.980;8.808;2023-06-19T19:16:30;4.20;;;3.90;;
6953;SDS011;3516;47.980;8.808;2023-06-19T19:18:56;4.10;;;3.90;;
6953;SDS011;3516;47.980;8.808;2023-06-19T19:21:24;4.63;;;4.38;;
6953;SDS011;3516;47.980;8.808;2023-06-19T19:23:51;4.40;;;4.20;;
6953;SDS011;3516;47.980;8.808;2023-06-19T19:26:18;4.80;;;4.50;;
6953;SDS011;3516;47.980;8.808;2023-06-19T19:28:44;4.82;;;4.43;;
6953;SDS011;3516;47.980;8.808;2023-06-19T19:31:11;4.40;;;4.20;;
6953;SDS011;3516;47.980;8.808;2023-06-19T19:33:38;4.53;;;4.20;;
6953;SDS011;3516;47.980;8.808;2023-06-19T19:36:04;4.63;;;4.40;;
6953;SDS011;3516;47.980;8.808;2023-06-19T19:38:34;4.57;;;4.30;;
6953;SDS011;3516;47.980;8.808;2023-06-19T19:41:00;4.32;;;4.05;;
6953;SDS011;3516;47.980;8.808;2023-06-19T19:43:27;4.38;;;4.18;;
6953;SDS011;3516;47.980;8.808;2023-06-19T19:45:54;5.20;;;4.90;;
6953;SDS011;3516;47.980;8.808;2023-06-19T19:48:20;4.80;;;4.50;;
6953;SDS011;3516;47.980;8.808;2023-06-19T19:50:47;4.90;;;4.55;;
6953;SDS011;3516;47.980;8.808;2023-06-19T19:53:14;5.45;;;4.43;;
6953;SDS011;3516;47.980;8.808;2023-06-19T19:55:42;5.70;;;5.35;;
6953;SDS011;3516;47.980;8.808;2023-06-19T19:58:09;5.50;;;5.07;;
6953;SDS011;3516;47.980;8.808;2023-06-19T20:00:35;5.47;;;5.18;;
6953;SDS011;3516;47.980;8.808;2023-06-19T20:03:02;5.85;;;5.38;;
6953;SDS011;3516;47.980;8.808;2023-06-19T20:05:29;5.50;;;5.20;;
6953;SDS011;3516;47.980;8.808;2023-06-19T20:07:55;5.40;;;5.00;;
6953;SDS011;3516;47.980;8.808;2023-06-19T20:10:22;4.60;;;4.20;;
6953;SDS011;3516;47.980;8.808;2023-06-19T20:12:50;5.03;;;4.68;;
6953;SDS011;3516;47.980;8.808;2023-06-19T20:15:17;4.75;;;4.47;;
6953;SDS011;3516;47.980;8.808;2023-06-19T20:17:43;4.80;;;4.40;;
6953;SDS011;3516;47.980;8.808;2023-06-19T20:20:11;4.35;;;3.97;;
6953;SDS011;3516;47.980;8.808;2023-06-19T20:22:38;3.85;;;3.60;;
6953;SDS011;3516;47.980;8.808;2023-06-19T20:25:05;4.07;;;3.88;;
6953;SDS011;3516;47.980;8.808;2023-06-19T20:27:32;4.25;;;3.95;;
6953;SDS011;3516;47.980;8.808;2023-06-19T20:30:00;4.50;;;4.30;;
6953;SDS011;3516;47.980;8.808;2023-06-19T20:32:27;3.90;;;3.70;;
6953;SDS011;3516;47.980;8.808;2023-06-19T20:34:53;3.83;;;3.65;;
6953;SDS011;3516;47.980;8.808;2023-06-19T20:37:20;3.38;;;3.28;;
6953;SDS011;3516;47.980;8.808;2023-06-19T20:39:47;3.33;;;3.22;;
6953;SDS011;3516;47.980;8.808;2023-06-19T20:42:13;3.13;;;3.03;;
6953;SDS011;3516;47.980;8.808;2023-06-19T20:44:43;3.20;;;3.03;;
6953;SDS011;3516;47.980;8.808;2023-06-19T20:47:11;3.42;;;3.22;;
6953;SDS011;3516;47.980;8.808;2023-06-19T20:49:38;3.58;;;3.28;;
6953;SDS011;3516;47.980;8.808;2023-06-19T20:52:04;4.75;;;4.40;;
6953;SDS011;3516;47.980;8.808;2023-06-19T20:54:31;4.25;;;3.95;;
6953;SDS011;3516;47.980;8.808;2023-06-19T20:56:58;4.03;;;3.83;;
6953;SDS011;3516;47.980;8.808;2023-06-19T20:59:25;4.22;;;4.03;;
6953;SDS011;3516;47.980;8.808;2023-06-19T21:01:51;3.97;;;3.78;;
6953;SDS011;3516;47.980;8.808;2023-06-19T21:04:22;3.55;;;3.35;;
6953;SDS011;3516;47.980;8.808;2023-06-19T21:06:49;3.78;;;3.53;;
6953;SDS011;3516;47.980;8.808;2023-06-19T21:09:16;3.28;;;3.17;;
6953;SDS011;3516;47.980;8.808;2023-06-19T21:11:43;3.40;;;3.20;;
6953;SDS011;3516;47.980;8.808;2023-06-19T21:14:10;3.50;;;3.35;;
6953;SDS011;3516;47.980;8.808;2023-06-19T21:16:37;3.40;;;3.30;;
6953;SDS011;3516;47.980;8.808;2023-06-19T21:19:04;3.35;;;3.22;;
